sensor_id;sensor_type;location;lat;lon;timestamp;pressure;altitude;pressure_sealevel;temperature;humidity
37852;BME280;23691;52.486;4.650;2023-02-04T00:00:17;103332.06;;;8.57;83.80
37852;BME280;23691;52.486;4.650;2023-02-04T00:02:43;103332.06;;;8.57;83.97
37852;BME280;23691;52.486;4.650;2023-02-04T00:05:09;103333.78;;;8.58;84.01
37852;BME280;23691;52.486;4.650;2023-02-04T00:07:36;103336.44;;;8.58;84.00
37852;BME280;23691;52.486;4.650;2023-02-04T00:10:03;103340.06;;;8.57;84.09
37852;BME280;23691;52.486;4.650;2023-02-04T00:12:33;103335.00;;;8.52;84.11
37852;BME280;23691;52.486;4.650;2023-02-04T00:14:58;103337.94;;;8.48;84.03
37852;BME280;23691;52.486;4.650;2023-02-04T00:17:24;103340.88;;;8.43;84.15
37852;BME280;23691;52.486;4.650;2023-02-04T00:19:49;103349.66;;;8.45;84.14
37852;BME280;23691;52.486;4.650;2023-02-04T00:22:15;103355.84;;;8.46;84.38
37852;BME280;23691;52.486;4.650;2023-02-04T00:24:41;103352.63;;;8.39;84.47
37852;BME280;23691;52.486;4.650;2023-02-04T00:27:13;103358.06;;;8.37;84.60
37852;BME280;23691;52.486;4.650;2023-02-04T00:29:41;103354.44;;;8.38;84.92
37852;BME280;23691;52.486;4.650;2023-02-04T00:32:06;103354.53;;;8.37;84.85
37852;BME280;23691;52.486;4.650;2023-02-04T00:34:31;103354.69;;;8.34;84.66
37852;BME280;23691;52.486;4.650;2023-02-04T00:36:57;103353.06;;;8.31;85.37
37852;BME280;23691;52.486;4.650;2023-02-04T00:39:22;103363.72;;;8.31;85.13
37852;BME280;23691;52.486;4.650;2023-02-04T00:41:48;103358.66;;;8.27;85.16
37852;BME280;23691;52.486;4.650;2023-02-04T00:44:13;103354.47;;;8.23;85.21
37852;BME280;23691;52.486;4.650;2023-02-04T00:46:40;103356.44;;;8.19;85.50
37852;BME280;23691;52.486;4.650;2023-02-04T00:49:05;103354.81;;;8.16;85.53
37852;BME280;23691;52.486;4.650;2023-02-04T00:51:38;103359.34;;;8.14;85.85
37852;BME280;23691;52.486;4.650;2023-02-04T00:54:05;103363.94;;;8.12;86.13
37852;BME280;23691;52.486;4.650;2023-02-04T00:56:33;103356.97;;;8.10;86.04
37852;BME280;23691;52.486;4.650;2023-02-04T00:58:59;103360.41;;;8.12;86.00
37852;BME280;23691;52.486;4.650;2023-02-04T01:01:25;103356.22;;;8.08;86.28
37852;BME280;23691;52.486;4.650;2023-02-04T01:03:50;103350.94;;;8.06;86.30
37852;BME280;23691;52.486;4.650;2023-02-04T01:06:16;103358.94;;;8.06;86.61
37852;BME280;23691;52.486;4.650;2023-02-04T01:08:44;103354.56;;;8.05;86.50
37852;BME280;23691;52.486;4.650;2023-02-04T01:11:09;103367.97;;;8.04;86.82
37852;BME280;23691;52.486;4.650;2023-02-04T01:13:34;103369.97;;;8.00;87.17
37852;BME280;23691;52.486;4.650;2023-02-04T01:16:00;103380.72;;;7.99;87.39
37852;BME280;23691;52.486;4.650;2023-02-04T01:18:25;103381.56;;;7.99;87.40
37852;BME280;23691;52.486;4.650;2023-02-04T01:20:51;103383.38;;;7.99;87.31
37852;BME280;23691;52.486;4.650;2023-02-04T01:23:16;103392.16;;;8.01;87.46
37852;BME280;23691;52.486;4.650;2023-02-04T01:25:41;103375.44;;;7.97;87.40
37852;BME280;23691;52.486;4.650;2023-02-04T01:28:07;103388.78;;;7.97;87.40
37852;BME280;23691;52.486;4.650;2023-02-04T01:30:32;103395.00;;;7.98;87.35
37852;BME280;23691;52.486;4.650;2023-02-04T01:32:58;103402.09;;;7.97;87.54
37852;BME280;23691;52.486;4.650;2023-02-04T01:35:23;103404.94;;;7.94;87.72
37852;BME280;23691;52.486;4.650;2023-02-04T01:37:49;103407.69;;;7.92;87.73
37852;BME280;23691;52.486;4.650;2023-02-04T01:40:17;103414.75;;;7.93;87.97
37852;BME280;23691;52.486;4.650;2023-02-04T01:42:43;103415.53;;;7.95;87.80
37852;BME280;23691;52.486;4.650;2023-02-04T01:45:11;103418.22;;;7.95;87.81
37852;BME280;23691;52.486;4.650;2023-02-04T01:47:40;103416.41;;;7.96;87.95
37852;BME280;23691;52.486;4.650;2023-02-04T01:50:06;103417.25;;;7.96;88.03
37852;BME280;23691;52.486;4.650;2023-02-04T01:52:38;103416.31;;;7.98;87.95
37852;BME280;23691;52.486;4.650;2023-02-04T01:55:12;103417.00;;;8.01;87.82
37852;BME280;23691;52.486;4.650;2023-02-04T01:57:41;103428.34;;;8.05;87.91
37852;BME280;23691;52.486;4.650;2023-02-04T02:00:20;103425.59;;;8.06;87.76
37852;BME280;23691;52.486;4.650;2023-02-04T02:02:49;103425.78;;;8.03;87.95
37852;BME280;23691;52.486;4.650;2023-02-04T02:05:27;103430.09;;;8.06;87.90
37852;BME280;23691;52.486;4.650;2023-02-04T02:07:57;103429.22;;;8.05;88.00
37852;BME280;23691;52.486;4.650;2023-02-04T02:10:24;103421.13;;;8.07;88.21
37852;BME280;23691;52.486;4.650;2023-02-04T02:12:50;103420.19;;;8.08;88.16
37852;BME280;23691;52.486;4.650;2023-02-04T02:15:16;103429.91;;;8.09;88.30
37852;BME280;23691;52.486;4.650;2023-02-04T02:17:42;103432.50;;;8.10;88.17
37852;BME280;23691;52.486;4.650;2023-02-04T02:20:10;103431.34;;;8.14;88.21
37852;BME280;23691;52.486;4.650;2023-02-04T02:25:11;103438.75;;;8.09;88.47
37852;BME280;23691;52.486;4.650;2023-02-04T02:27:37;103445.66;;;8.13;88.76
37852;BME280;23691;52.486;4.650;2023-02-04T02:30:04;103446.44;;;8.15;88.51
37852;BME280;23691;52.486;4.650;2023-02-04T02:32:30;103444.44;;;8.19;88.77
37852;BME280;23691;52.486;4.650;2023-02-04T02:34:58;103446.19;;;8.20;88.78
37852;BME280;23691;52.486;4.650;2023-02-04T02:37:24;103441.88;;;8.17;88.72
37852;BME280;23691;52.486;4.650;2023-02-04T02:39:52;103447.09;;;8.19;88.89
37852;BME280;23691;52.486;4.650;2023-02-04T02:42:18;103446.97;;;8.22;88.93
37852;BME280;23691;52.486;4.650;2023-02-04T02:44:45;103443.34;;;8.23;88.86
37852;BME280;23691;52.486;4.650;2023-02-04T02:47:16;103435.41;;;8.22;88.87
37852;BME280;23691;52.486;4.650;2023-02-04T02:49:46;103438.00;;;8.23;88.91
37852;BME280;23691;52.486;4.650;2023-02-04T02:52:12;103436.28;;;8.22;88.98
37852;BME280;23691;52.486;4.650;2023-02-04T02:54:38;103436.28;;;8.22;88.94
37852;BME280;23691;52.486;4.650;2023-02-04T02:57:13;103436.97;;;8.26;88.83
37852;BME280;23691;52.486;4.650;2023-02-04T02:59:40;103436.19;;;8.24;88.88
37852;BME280;23691;52.486;4.650;2023-02-04T03:02:09;103442.22;;;8.27;88.83
37852;BME280;23691;52.486;4.650;2023-02-04T03:04:41;103441.19;;;8.30;89.12
37852;BME280;23691;52.486;4.650;2023-02-04T03:07:09;103441.09;;;8.31;88.70
37852;BME280;23691;52.486;4.650;2023-02-04T03:09:35;103442.84;;;8.32;88.72
37852;BME280;23691;52.486;4.650;2023-02-04T03:12:01;103444.66;;;8.32;88.65
37852;BME280;23691;52.486;4.650;2023-02-04T03:14:27;103442.72;;;8.34;88.76
37852;BME280;23691;52.486;4.650;2023-02-04T03:16:53;103440.94;;;8.34;88.48
37852;BME280;23691;52.486;4.650;2023-02-04T03:19:20;103446.16;;;8.36;88.64
37852;BME280;23691;52.486;4.650;2023-02-04T03:21:46;103451.50;;;8.36;88.47
37852;BME280;23691;52.486;4.650;2023-02-04T03:24:12;103453.41;;;8.34;88.45
37852;BME280;23691;52.486;4.650;2023-02-04T03:26:38;103449.03;;;8.33;88.62
37852;BME280;23691;52.486;4.650;2023-02-04T03:29:06;103449.78;;;8.35;88.53
37852;BME280;23691;52.486;4.650;2023-02-04T03:31:32;103454.28;;;8.34;88.62
37852;BME280;23691;52.486;4.650;2023-02-04T03:33:57;103460.47;;;8.35;88.64
37852;BME280;23691;52.486;4.650;2023-02-04T03:36:23;103460.66;;;8.32;88.50
37852;BME280;23691;52.486;4.650;2023-02-04T03:38:48;103457.97;;;8.32;88.79
37852;BME280;23691;52.486;4.650;2023-02-04T03:41:16;103459.63;;;8.34;88.62
37852;BME280;23691;52.486;4.650;2023-02-04T03:43:42;103457.03;;;8.33;88.60
37852;BME280;23691;52.486;4.650;2023-02-04T03:46:07;103458.72;;;8.34;88.44
37852;BME280;23691;52.486;4.650;2023-02-04T03:48:32;103465.81;;;8.35;88.40
37852;BME280;23691;52.486;4.650;2023-02-04T03:51:01;103453.50;;;8.32;88.66
37852;BME280;23691;52.486;4.650;2023-02-04T03:53:26;103451.69;;;8.33;88.42
37852;BME280;23691;52.486;4.650;2023-02-04T03:55:51;103448.94;;;8.34;88.33
37852;BME280;23691;52.486;4.650;2023-02-04T03:58:19;103444.66;;;8.32;88.44
37852;BME280;23691;52.486;4.650;2023-02-04T04:00:47;103456.16;;;8.32;88.36
37852;BME280;23691;52.486;4.650;2023-02-04T04:03:15;103442.72;;;8.34;88.38
37852;BME280;23691;52.486;4.650;2023-02-04T04:05:40;103455.97;;;8.35;88.31
37852;BME280;23691;52.486;4.650;2023-02-04T04:08:05;103448.75;;;8.37;88.29
37852;BME280;23691;52.486;4.650;2023-02-04T04:10:31;103452.28;;;8.38;88.19
37852;BME280;23691;52.486;4.650;2023-02-04T04:12:56;103460.47;;;8.35;88.28
37852;BME280;23691;52.486;4.650;2023-02-04T04:15:22;103458.66;;;8.35;88.10
37852;BME280;23691;52.486;4.650;2023-02-04T04:17:48;103461.25;;;8.37;88.04
37852;BME280;23691;52.486;4.650;2023-02-04T04:20:13;103468.28;;;8.38;88.05
37852;BME280;23691;52.486;4.650;2023-02-04T04:22:39;103468.38;;;8.36;87.97
37852;BME280;23691;52.486;4.650;2023-02-04T04:25:04;103463.03;;;8.36;88.18
37852;BME280;23691;52.486;4.650;2023-02-04T04:27:30;103469.25;;;8.37;88.29
37852;BME280;23691;52.486;4.650;2023-02-04T04:29:56;103462.97;;;8.38;88.34
37852;BME280;23691;52.486;4.650;2023-02-04T04:32:21;103463.78;;;8.40;87.71
37852;BME280;23691;52.486;4.650;2023-02-04T04:34:46;103471.91;;;8.37;88.19
37852;BME280;23691;52.486;4.650;2023-02-04T04:37:12;103470.34;;;8.33;88.37
37852;BME280;23691;52.486;4.650;2023-02-04T04:39:38;103465.09;;;8.31;88.36
37852;BME280;23691;52.486;4.650;2023-02-04T04:42:03;103471.22;;;8.33;88.26
37852;BME280;23691;52.486;4.650;2023-02-04T04:44:28;103471.31;;;8.32;88.06
37852;BME280;23691;52.486;4.650;2023-02-04T04:46:54;103476.72;;;8.30;87.91
37852;BME280;23691;52.486;4.650;2023-02-04T04:49:19;103475.88;;;8.30;88.31
37852;BME280;23691;52.486;4.650;2023-02-04T04:51:44;103473.19;;;8.30;88.15
37852;BME280;23691;52.486;4.650;2023-02-04T04:54:10;103472.31;;;8.29;88.14
37852;BME280;23691;52.486;4.650;2023-02-04T04:56:35;103468.91;;;8.27;88.06
37852;BME280;23691;52.486;4.650;2023-02-04T04:59:00;103476.19;;;8.24;88.00
37852;BME280;23691;52.486;4.650;2023-02-04T05:01:27;103483.53;;;8.20;87.99
37852;BME280;23691;52.486;4.650;2023-02-04T05:03:53;103479.91;;;8.21;88.01
37852;BME280;23691;52.486;4.650;2023-02-04T05:06:18;103479.13;;;8.19;87.98
37852;BME280;23691;52.486;4.650;2023-02-04T05:08:52;103482.81;;;8.16;87.88
37852;BME280;23691;52.486;4.650;2023-02-04T05:11:18;103489.97;;;8.16;87.76
37852;BME280;23691;52.486;4.650;2023-02-04T05:13:43;103480.31;;;8.13;87.70
37852;BME280;23691;52.486;4.650;2023-02-04T05:16:08;103490.19;;;8.11;87.63
37852;BME280;23691;52.486;4.650;2023-02-04T05:18:37;103488.38;;;8.12;87.63
37852;BME280;23691;52.486;4.650;2023-02-04T05:21:02;103485.91;;;8.09;87.65
37852;BME280;23691;52.486;4.650;2023-02-04T05:23:28;103489.53;;;8.08;87.53
37852;BME280;23691;52.486;4.650;2023-02-04T05:25:53;103493.91;;;8.09;87.35
37852;BME280;23691;52.486;4.650;2023-02-04T05:28:19;103491.22;;;8.09;87.31
37852;BME280;23691;52.486;4.650;2023-02-04T05:30:44;103498.31;;;8.10;87.46
37852;BME280;23691;52.486;4.650;2023-02-04T05:33:09;103505.28;;;8.12;87.42
37852;BME280;23691;52.486;4.650;2023-02-04T05:35:35;103514.13;;;8.13;87.70
37852;BME280;23691;52.486;4.650;2023-02-04T05:38:00;103507.00;;;8.13;87.29
37852;BME280;23691;52.486;4.650;2023-02-04T05:40:25;103515.84;;;8.14;87.39
37852;BME280;23691;52.486;4.650;2023-02-04T05:42:51;103521.16;;;8.14;87.36
37852;BME280;23691;52.486;4.650;2023-02-04T05:45:16;103506.91;;;8.15;87.33
37852;BME280;23691;52.486;4.650;2023-02-04T05:47:43;103516.69;;;8.14;87.09
37852;BME280;23691;52.486;4.650;2023-02-04T05:50:09;103510.44;;;8.15;87.20
37852;BME280;23691;52.486;4.650;2023-02-04T05:52:34;103506.91;;;8.15;87.25
37852;BME280;23691;52.486;4.650;2023-02-04T05:55:00;103521.09;;;8.15;87.16
37852;BME280;23691;52.486;4.650;2023-02-04T05:57:25;103522.03;;;8.14;87.30
37852;BME280;23691;52.486;4.650;2023-02-04T05:59:50;103535.28;;;8.16;87.10
37852;BME280;23691;52.486;4.650;2023-02-04T06:02:16;103533.66;;;8.13;86.95
37852;BME280;23691;52.486;4.650;2023-02-04T06:04:41;103541.81;;;8.10;86.94
37852;BME280;23691;52.486;4.650;2023-02-04T06:07:06;103533.13;;;8.07;86.71
37852;BME280;23691;52.486;4.650;2023-02-04T06:09:32;103538.56;;;8.05;86.88
37852;BME280;23691;52.486;4.650;2023-02-04T06:11:57;103535.16;;;8.02;87.14
37852;BME280;23691;52.486;4.650;2023-02-04T06:14:22;103545.84;;;8.02;86.99
37852;BME280;23691;52.486;4.650;2023-02-04T06:16:48;103554.78;;;8.01;87.09
37852;BME280;23691;52.486;4.650;2023-02-04T06:19:13;103543.28;;;8.00;87.32
37852;BME280;23691;52.486;4.650;2023-02-04T06:21:39;103546.97;;;7.98;87.13
37852;BME280;23691;52.486;4.650;2023-02-04T06:24:04;103551.50;;;7.95;87.50
37852;BME280;23691;52.486;4.650;2023-02-04T06:26:30;103549.69;;;7.96;87.16
37852;BME280;23691;52.486;4.650;2023-02-04T06:28:55;103541.75;;;7.94;87.17
37852;BME280;23691;52.486;4.650;2023-02-04T06:31:20;103557.75;;;7.94;87.01
37852;BME280;23691;52.486;4.650;2023-02-04T06:33:46;103559.50;;;7.95;86.97
37852;BME280;23691;52.486;4.650;2023-02-04T06:36:11;103564.03;;;7.93;87.13
37852;BME280;23691;52.486;4.650;2023-02-04T06:38:36;103560.53;;;7.93;86.88
37852;BME280;23691;52.486;4.650;2023-02-04T06:41:02;103561.38;;;7.93;86.93
37852;BME280;23691;52.486;4.650;2023-02-04T06:43:27;103569.38;;;7.93;87.02
37852;BME280;23691;52.486;4.650;2023-02-04T06:45:52;103572.03;;;7.93;86.95
37852;BME280;23691;52.486;4.650;2023-02-04T06:48:18;103571.09;;;7.94;86.90
37852;BME280;23691;52.486;4.650;2023-02-04T06:50:43;103564.97;;;7.92;86.91
37852;BME280;23691;52.486;4.650;2023-02-04T06:53:09;103567.56;;;7.94;86.61
37852;BME280;23691;52.486;4.650;2023-02-04T06:55:35;103567.63;;;7.92;86.89
37852;BME280;23691;52.486;4.650;2023-02-04T06:58:00;103572.97;;;7.92;87.04
37852;BME280;23691;52.486;4.650;2023-02-04T07:00:26;103581.91;;;7.91;87.00
37852;BME280;23691;52.486;4.650;2023-02-04T07:02:52;103587.31;;;7.90;86.95
37852;BME280;23691;52.486;4.650;2023-02-04T07:05:17;103582.94;;;7.89;87.01
37852;BME280;23691;52.486;4.650;2023-02-04T07:07:42;103587.25;;;7.91;86.99
37852;BME280;23691;52.486;4.650;2023-02-04T07:10:08;103589.06;;;7.91;87.15
37852;BME280;23691;52.486;4.650;2023-02-04T07:12:33;103589.91;;;7.91;86.93
37852;BME280;23691;52.486;4.650;2023-02-04T07:14:59;103592.53;;;7.93;87.10
37852;BME280;23691;52.486;4.650;2023-02-04T07:17:24;103598.78;;;7.92;86.94
37852;BME280;23691;52.486;4.650;2023-02-04T07:19:49;103602.22;;;7.94;87.09
37852;BME280;23691;52.486;4.650;2023-02-04T07:22:15;103608.34;;;7.96;87.05
37852;BME280;23691;52.486;4.650;2023-02-04T07:24:40;103613.59;;;7.98;86.73
37852;BME280;23691;52.486;4.650;2023-02-04T07:27:05;103615.31;;;7.99;86.97
37852;BME280;23691;52.486;4.650;2023-02-04T07:29:31;103615.25;;;8.00;87.00
37852;BME280;23691;52.486;4.650;2023-02-04T07:31:56;103625.03;;;8.00;87.08
37852;BME280;23691;52.486;4.650;2023-02-04T07:34:21;103628.47;;;8.02;86.95
37852;BME280;23691;52.486;4.650;2023-02-04T07:36:47;103632.91;;;8.03;86.79
37852;BME280;23691;52.486;4.650;2023-02-04T07:39:12;103632.78;;;8.04;86.97
37852;BME280;23691;52.486;4.650;2023-02-04T07:41:38;103634.38;;;8.08;87.03
37852;BME280;23691;52.486;4.650;2023-02-04T07:44:03;103635.16;;;8.10;86.99
37852;BME280;23691;52.486;4.650;2023-02-04T07:46:29;103641.19;;;8.14;87.06
37852;BME280;23691;52.486;4.650;2023-02-04T07:48:54;103645.50;;;8.16;86.99
37852;BME280;23691;52.486;4.650;2023-02-04T07:51:20;103655.22;;;8.17;87.12
37852;BME280;23691;52.486;4.650;2023-02-04T07:53:45;103655.00;;;8.22;87.33
37852;BME280;23691;52.486;4.650;2023-02-04T07:56:11;103642.34;;;8.26;87.19
37852;BME280;23691;52.486;4.650;2023-02-04T07:58:36;103651.13;;;8.28;87.43
37852;BME280;23691;52.486;4.650;2023-02-04T08:01:01;103649.25;;;8.30;87.31
37852;BME280;23691;52.486;4.650;2023-02-04T08:03:27;103653.63;;;8.31;87.17
37852;BME280;23691;52.486;4.650;2023-02-04T08:05:52;103655.09;;;8.36;87.17
37852;BME280;23691;52.486;4.650;2023-02-04T08:08:18;103661.03;;;8.43;87.33
37852;BME280;23691;52.486;4.650;2023-02-04T08:10:44;103656.41;;;8.47;87.29
37852;BME280;23691;52.486;4.650;2023-02-04T08:13:10;103653.47;;;8.51;87.39
37852;BME280;23691;52.486;4.650;2023-02-04T08:15:35;103658.47;;;8.57;87.39
37852;BME280;23691;52.486;4.650;2023-02-04T08:18:01;103665.44;;;8.60;87.31
37852;BME280;23691;52.486;4.650;2023-02-04T08:20:26;103671.81;;;8.57;87.61
37852;BME280;23691;52.486;4.650;2023-02-04T08:22:52;103676.06;;;8.62;87.77
37852;BME280;23691;52.486;4.650;2023-02-04T08:25:17;103674.94;;;8.66;87.54
37852;BME280;23691;52.486;4.650;2023-02-04T08:27:42;103672.25;;;8.66;87.69
37852;BME280;23691;52.486;4.650;2023-02-04T08:30:08;103675.72;;;8.68;87.74
37852;BME280;23691;52.486;4.650;2023-02-04T08:32:34;103676.50;;;8.70;87.51
37852;BME280;23691;52.486;4.650;2023-02-04T08:34:59;103679.00;;;8.73;87.73
37852;BME280;23691;52.486;4.650;2023-02-04T08:37:25;103680.63;;;8.75;87.73
37852;BME280;23691;52.486;4.650;2023-02-04T08:39:51;103686.75;;;8.77;87.57
37852;BME280;23691;52.486;4.650;2023-02-04T08:42:16;103688.66;;;8.75;87.84
37852;BME280;23691;52.486;4.650;2023-02-04T08:44:42;103685.28;;;8.72;88.00
37852;BME280;23691;52.486;4.650;2023-02-04T08:47:08;103694.22;;;8.71;88.00
37852;BME280;23691;52.486;4.650;2023-02-04T08:49:34;103685.13;;;8.75;88.15
37852;BME280;23691;52.486;4.650;2023-02-04T08:52:00;103696.41;;;8.80;88.17
37852;BME280;23691;52.486;4.650;2023-02-04T08:54:27;103699.00;;;8.81;87.97
37852;BME280;23691;52.486;4.650;2023-02-04T08:56:52;103684.28;;;8.90;87.97
37852;BME280;23691;52.486;4.650;2023-02-04T08:59:18;103689.13;;;8.99;87.67
37852;BME280;23691;52.486;4.650;2023-02-04T09:01:43;103691.53;;;9.04;87.10
37852;BME280;23691;52.486;4.650;2023-02-04T09:04:13;103688.34;;;9.13;87.43
37852;BME280;23691;52.486;4.650;2023-02-04T09:06:38;103694.44;;;9.15;87.05
37852;BME280;23691;52.486;4.650;2023-02-04T09:09:04;103698.63;;;9.21;86.89
37852;BME280;23691;52.486;4.650;2023-02-04T09:11:29;103697.31;;;9.28;86.84
37852;BME280;23691;52.486;4.650;2023-02-04T09:13:54;103694.03;;;9.39;86.50
37852;BME280;23691;52.486;4.650;2023-02-04T09:16:21;103692.56;;;9.49;86.57
37852;BME280;23691;52.486;4.650;2023-02-04T09:18:47;103699.19;;;9.58;86.50
37852;BME280;23691;52.486;4.650;2023-02-04T09:21:12;103712.00;;;9.67;86.49
37852;BME280;23691;52.486;4.650;2023-02-04T09:23:37;103704.78;;;9.69;86.38
37852;BME280;23691;52.486;4.650;2023-02-04T09:26:03;103718.13;;;9.69;86.52
37852;BME280;23691;52.486;4.650;2023-02-04T09:28:30;103710.91;;;9.71;86.39
37852;BME280;23691;52.486;4.650;2023-02-04T09:30:56;103717.88;;;9.74;86.41
37852;BME280;23691;52.486;4.650;2023-02-04T09:33:21;103717.59;;;9.78;85.99
37852;BME280;23691;52.486;4.650;2023-02-04T09:35:49;103722.59;;;9.84;85.52
37852;BME280;23691;52.486;4.650;2023-02-04T09:38:14;103727.59;;;9.91;85.47
37852;BME280;23691;52.486;4.650;2023-02-04T09:40:42;103725.69;;;9.93;85.08
37852;BME280;23691;52.486;4.650;2023-02-04T09:43:14;103730.00;;;9.95;84.62
37852;BME280;23691;52.486;4.650;2023-02-04T09:45:42;103727.59;;;9.91;84.73
37852;BME280;23691;52.486;4.650;2023-02-04T09:48:23;103731.91;;;9.93;84.63
37852;BME280;23691;52.486;4.650;2023-02-04T09:50:52;103728.97;;;9.98;84.43
37852;BME280;23691;52.486;4.650;2023-02-04T09:53:25;103738.81;;;9.97;84.21
37852;BME280;23691;52.486;4.650;2023-02-04T09:55:50;103741.75;;;9.93;83.79
37852;BME280;23691;52.486;4.650;2023-02-04T09:58:22;103744.88;;;9.85;83.90
37852;BME280;23691;52.486;4.650;2023-02-04T10:01:09;103754.78;;;9.83;83.47
37852;BME280;23691;52.486;4.650;2023-02-04T10:03:35;103750.47;;;9.80;83.42
37852;BME280;23691;52.486;4.650;2023-02-04T10:06:01;103759.16;;;9.84;83.19
37852;BME280;23691;52.486;4.650;2023-02-04T10:08:28;103759.34;;;9.81;82.78
37852;BME280;23691;52.486;4.650;2023-02-04T10:10:55;103752.19;;;9.81;83.03
37852;BME280;23691;52.486;4.650;2023-02-04T10:13:52;103755.63;;;9.83;82.25
37852;BME280;23691;52.486;4.650;2023-02-04T10:16:49;103755.81;;;9.80;82.58
37852;BME280;23691;52.486;4.650;2023-02-04T10:19:16;103750.38;;;9.82;82.52
37852;BME280;23691;52.486;4.650;2023-02-04T10:21:43;103760.22;;;9.81;82.13
37852;BME280;23691;52.486;4.650;2023-02-04T10:24:14;103762.88;;;9.81;82.14
37852;BME280;23691;52.486;4.650;2023-02-04T10:26:40;103765.06;;;9.75;82.14
37852;BME280;23691;52.486;4.650;2023-02-04T10:29:11;103771.72;;;9.67;82.38
37852;BME280;23691;52.486;4.650;2023-02-04T10:31:39;103772.81;;;9.63;82.84
37852;BME280;23691;52.486;4.650;2023-02-04T10:36:43;103771.00;;;9.64;83.44
37852;BME280;23691;52.486;4.650;2023-02-04T10:39:13;103771.19;;;9.61;83.55
37852;BME280;23691;52.486;4.650;2023-02-04T10:44:30;103776.00;;;9.54;84.18
37852;BME280;23691;52.486;4.650;2023-02-04T10:47:03;103766.28;;;9.53;84.06
37852;BME280;23691;52.486;4.650;2023-02-04T10:50:16;103766.94;;;9.57;84.40
37852;BME280;23691;52.486;4.650;2023-02-04T10:52:44;103761.28;;;9.63;84.38
37852;BME280;23691;52.486;4.650;2023-02-04T10:55:13;103774.47;;;9.66;84.41
37852;BME280;23691;52.486;4.650;2023-02-04T10:57:42;103761.09;;;9.66;84.51
37852;BME280;23691;52.486;4.650;2023-02-04T11:00:17;103758.59;;;9.63;84.80
37852;BME280;23691;52.486;4.650;2023-02-04T11:02:58;103761.28;;;9.63;85.11
37852;BME280;23691;52.486;4.650;2023-02-04T11:05:31;103763.69;;;9.67;84.98
37852;BME280;23691;52.486;4.650;2023-02-04T11:07:57;103765.06;;;9.75;84.83
37852;BME280;23691;52.486;4.650;2023-02-04T11:10:28;103765.56;;;9.81;84.67
37852;BME280;23691;52.486;4.650;2023-02-04T11:18:09;103758.25;;;9.85;84.48
37852;BME280;23691;52.486;4.650;2023-02-04T11:20:36;103751.94;;;9.86;84.31
37852;BME280;23691;52.486;4.650;2023-02-04T11:23:34;103759.59;;;9.92;84.26
37852;BME280;23691;52.486;4.650;2023-02-04T11:26:31;103756.63;;;9.97;84.37
37852;BME280;23691;52.486;4.650;2023-02-04T11:33:49;103756.47;;;10.00;83.77
37852;BME280;23691;52.486;4.650;2023-02-04T11:36:16;103746.72;;;9.99;83.75
37852;BME280;23691;52.486;4.650;2023-02-04T11:38:46;103754.16;;;9.94;83.95
37852;BME280;23691;52.486;4.650;2023-02-04T11:41:20;103750.88;;;9.88;83.63
37852;BME280;23691;52.486;4.650;2023-02-04T11:43:51;103752.88;;;9.85;83.84
37852;BME280;23691;52.486;4.650;2023-02-04T11:46:17;103755.56;;;9.85;83.61
37852;BME280;23691;52.486;4.650;2023-02-04T11:48:43;103749.16;;;9.87;83.41
37852;BME280;23691;52.486;4.650;2023-02-04T11:51:16;103751.75;;;9.89;83.31
37852;BME280;23691;52.486;4.650;2023-02-04T11:53:42;103749.84;;;9.91;83.33
37852;BME280;23691;52.486;4.650;2023-02-04T11:56:21;103758.38;;;9.98;83.16
37852;BME280;23691;52.486;4.650;2023-02-04T11:58:49;103760.00;;;10.00;83.01
37852;BME280;23691;52.486;4.650;2023-02-04T12:01:23;103746.72;;;9.99;83.24
37852;BME280;23691;52.486;4.650;2023-02-04T12:04:21;103751.81;;;10.03;82.92
37852;BME280;23691;52.486;4.650;2023-02-04T12:07:01;103750.28;;;9.99;82.91
37852;BME280;23691;52.486;4.650;2023-02-04T12:09:29;103760.88;;;10.01;82.74
37852;BME280;23691;52.486;4.650;2023-02-04T12:11:59;103760.78;;;10.02;82.70
37852;BME280;23691;52.486;4.650;2023-02-04T12:14:37;103763.47;;;10.02;82.92
37852;BME280;23691;52.486;4.650;2023-02-04T12:17:17;103754.47;;;10.03;82.51
37852;BME280;23691;52.486;4.650;2023-02-04T12:19:43;103764.31;;;10.03;82.53
37852;BME280;23691;52.486;4.650;2023-02-04T12:22:08;103763.34;;;10.04;82.22
37852;BME280;23691;52.486;4.650;2023-02-04T12:24:34;103763.28;;;10.05;82.17
37852;BME280;23691;52.486;4.650;2023-02-04T12:26:59;103767.66;;;10.06;82.07
37852;BME280;23691;52.486;4.650;2023-02-04T12:29:27;103758.59;;;10.09;81.87
37852;BME280;23691;52.486;4.650;2023-02-04T12:31:52;103768.28;;;10.12;81.79
37852;BME280;23691;52.486;4.650;2023-02-04T12:34:18;103759.75;;;10.05;81.89
37852;BME280;23691;52.486;4.650;2023-02-04T12:36:43;103759.22;;;9.98;81.78
37852;BME280;23691;52.486;4.650;2023-02-04T12:39:08;103765.53;;;9.97;81.65
37852;BME280;23691;52.486;4.650;2023-02-04T12:41:37;103761.25;;;9.95;81.74
37852;BME280;23691;52.486;4.650;2023-02-04T12:44:02;103766.59;;;9.95;81.81
37852;BME280;23691;52.486;4.650;2023-02-04T12:46:28;103763.72;;;9.98;81.80
37852;BME280;23691;52.486;4.650;2023-02-04T12:48:54;103758.31;;;9.99;81.76
37852;BME280;23691;52.486;4.650;2023-02-04T12:51:19;103756.28;;;10.03;81.35
37852;BME280;23691;52.486;4.650;2023-02-04T12:53:46;103761.47;;;10.06;81.33
37852;BME280;23691;52.486;4.650;2023-02-04T12:56:15;103757.94;;;10.05;81.43
37852;BME280;23691;52.486;4.650;2023-02-04T12:58:41;103742.72;;;10.06;81.59
37852;BME280;23691;52.486;4.650;2023-02-04T13:01:06;103737.03;;;10.12;81.35
37852;BME280;23691;52.486;4.650;2023-02-04T13:03:32;103750.31;;;10.14;81.79
37852;BME280;23691;52.486;4.650;2023-02-04T13:05:58;103743.16;;;10.14;81.72
37852;BME280;23691;52.486;4.650;2023-02-04T13:08:23;103735.03;;;10.16;81.88
37852;BME280;23691;52.486;4.650;2023-02-04T13:10:49;103738.66;;;10.15;81.69
37852;BME280;23691;52.486;4.650;2023-02-04T13:13:20;103728.81;;;10.15;81.60
37852;BME280;23691;52.486;4.650;2023-02-04T13:15:47;103724.06;;;10.20;81.69
37852;BME280;23691;52.486;4.650;2023-02-04T13:18:13;103731.09;;;10.21;81.72